createdAt,value
2018-03-23T00:21:05.112Z,20.40
2018-03-23T01:18:34.891Z,21.23
2018-03-23T05:12:16.363Z,32.47
2018-03-23T05:20:54.134Z,37.60
2018-03-23T07:12:46.056Z,33.93
2018-03-23T07:18:22.725Z,28.87
2018-03-23T09:24:50.748Z,22.40
2018-03-23T09:27:18.294Z,20.83
2018-03-23T09:29:45.834Z,21.63
2018-03-23T09:32:14.146Z,23.00
2018-03-23T09:34:41.682Z,19.70
2018-03-23T09:37:09.231Z,20.57
2018-03-23T09:39:37.543Z,21.30
2018-03-23T09:42:05.179Z,20.93
2018-03-23T09:44:32.704Z,21.43
2018-03-23T09:47:00.236Z,22.37
2018-03-23T09:49:27.789Z,24.03
2018-03-23T09:51:55.326Z,22.27
2018-03-23T09:54:22.918Z,20.33
2018-03-23T09:56:50.453Z,21.00
2018-03-23T09:59:18.044Z,22.00
2018-03-23T10:01:45.589Z,24.07
2018-03-23T10:04:13.247Z,23.43
2018-03-23T10:06:40.787Z,24.37
2018-03-23T10:09:08.388Z,24.37
2018-03-23T10:11:35.976Z,25.30
2018-03-23T10:20:02.146Z,27.13
2018-03-23T10:22:30.578Z,26.43
2018-03-23T10:24:58.115Z,26.17
2018-03-23T10:27:25.651Z,25.53
2018-03-23T10:29:54.989Z,26.63
2018-03-23T10:32:22.508Z,28.20
2018-03-23T10:34:50.815Z,24.77
2018-03-23T10:37:18.368Z,26.43
2018-03-23T10:39:45.919Z,24.37
2018-03-23T10:42:14.345Z,24.53
2018-03-23T10:44:41.905Z,22.07
2018-03-23T10:47:09.493Z,22.83
2018-03-23T10:49:37.216Z,24.50
2018-03-23T10:52:04.812Z,21.53
2018-03-23T10:54:32.370Z,21.37
2018-03-23T10:57:00.059Z,25.37
2018-03-23T10:59:28.425Z,25.67
2018-03-23T11:02:01.761Z,26.60
2018-03-23T11:04:29.420Z,24.67
2018-03-23T11:06:57.027Z,24.60
2018-03-23T11:09:24.605Z,23.40
2018-03-23T11:11:52.140Z,27.37
2018-03-23T11:14:19.986Z,25.60
2018-03-23T11:16:47.524Z,24.03
2018-03-23T11:25:01.435Z,26.53
2018-03-23T11:27:29.675Z,25.50
2018-03-23T11:29:58.155Z,25.93
2018-03-23T11:32:26.481Z,26.47
2018-03-23T11:34:54.105Z,26.77
2018-03-23T11:37:21.636Z,24.77
2018-03-23T11:39:49.888Z,24.63
2018-03-23T11:42:21.262Z,25.67
2018-03-23T11:44:49.630Z,26.37
2018-03-23T11:47:17.161Z,27.10
2018-03-23T11:49:44.772Z,24.27
2018-03-23T11:52:13.074Z,25.63
2018-03-23T11:54:40.611Z,27.37
2018-03-23T11:57:08.909Z,25.97
2018-03-23T11:59:36.446Z,26.10
2018-03-23T12:02:04.812Z,27.93
2018-03-23T12:04:32.340Z,28.00
2018-03-23T12:06:59.875Z,25.00
2018-03-23T12:09:27.404Z,27.13
2018-03-23T12:11:55.708Z,23.30
2018-03-23T12:17:36.612Z,24.60
2018-03-23T12:20:04.347Z,26.33
2018-03-23T14:20:38.586Z,25.53
2018-03-23T15:20:54.407Z,28.57
2018-03-23T18:22:13.608Z,36.13
2018-03-23T19:16:20.409Z,44.63
2018-03-23T19:18:48.749Z,42.87
2018-03-23T19:33:04.600Z,45.83
2018-03-23T19:35:32.159Z,45.00
2018-03-23T19:37:59.718Z,44.57
2018-03-23T19:40:27.324Z,41.97
2018-03-23T19:42:55.633Z,43.43
2018-03-23T19:45:23.195Z,46.00
2018-03-23T19:47:50.753Z,47.30
2018-03-23T19:50:18.374Z,45.20
2018-03-23T19:52:50.634Z,44.73
2018-03-23T19:55:22.908Z,47.53
2018-03-23T19:57:50.502Z,45.77
2018-03-23T20:00:18.039Z,47.00
2018-03-23T20:08:50.529Z,45.97
2018-03-23T20:11:20.149Z,47.17
2018-03-23T21:14:40.035Z,47.63
2018-03-23T21:17:07.656Z,51.67
2018-03-23T21:19:46.519Z,49.93
2018-03-23T23:21:16.115Z,38.07
